Williams, California
Current Conditions -  °F | °C
As of 7:29 AM on Wednesday 26 Nov 2014 (Local Time) from KOVE Reporting Station
Haze Haze  
Wind Chill: 43°   Ceiling: Unl
Heat Index: 43°   Visibility: 2mi
Dew Point: 40°   Wind: 0mph
Humidity: 89%   Direction: NA
Pressure: 30.36"   Gusts: NA
Location:  39.15°N, 122.15°W
Report Text: KOVE 261529Z AUTO 00000KT 2SM BR CLR 06/04 A3036 RMK AO2 T00610044
Loading
Personal Weather Stations






























Interactive Weather Map New forecast layout! Learn more

10-Day Weather Forecast

Advertisements
Track Severe Weather on mobile